sensor_id;sensor_type;location;lat;lon;timestamp;temperature;humidity
4097;DHT22;2062;50.694;7.246;2023-01-25T00:00:05;2.30;67.10
4097;DHT22;2062;50.694;7.246;2023-01-25T00:02:33;2.30;67.10
4097;DHT22;2062;50.694;7.246;2023-01-25T00:04:59;2.20;66.90
4097;DHT22;2062;50.694;7.246;2023-01-25T00:07:28;2.20;66.90
4097;DHT22;2062;50.694;7.246;2023-01-25T00:09:54;2.30;67.10
4097;DHT22;2062;50.694;7.246;2023-01-25T00:12:21;2.20;67.00
4097;DHT22;2062;50.694;7.246;2023-01-25T00:14:48;2.20;67.00
4097;DHT22;2062;50.694;7.246;2023-01-25T00:17:14;2.20;67.10
4097;DHT22;2062;50.694;7.246;2023-01-25T00:19:41;2.20;67.00
4097;DHT22;2062;50.694;7.246;2023-01-25T00:22:08;2.20;67.10
4097;DHT22;2062;50.694;7.246;2023-01-25T00:24:37;2.20;67.20
4097;DHT22;2062;50.694;7.246;2023-01-25T00:27:04;2.20;67.20
4097;DHT22;2062;50.694;7.246;2023-01-25T00:33:34;2.20;67.10
4097;DHT22;2062;50.694;7.246;2023-01-25T00:36:26;2.20;67.10
4097;DHT22;2062;50.694;7.246;2023-01-25T00:38:54;2.10;67.20
4097;DHT22;2062;50.694;7.246;2023-01-25T00:41:24;2.10;67.30
4097;DHT22;2062;50.694;7.246;2023-01-25T00:43:51;2.10;67.10
4097;DHT22;2062;50.694;7.246;2023-01-25T00:46:18;2.10;67.10
4097;DHT22;2062;50.694;7.246;2023-01-25T00:48:45;2.20;67.20
4097;DHT22;2062;50.694;7.246;2023-01-25T00:51:12;2.10;67.20
4097;DHT22;2062;50.694;7.246;2023-01-25T00:53:38;2.10;67.30
4097;DHT22;2062;50.694;7.246;2023-01-25T00:56:06;2.20;67.30
4097;DHT22;2062;50.694;7.246;2023-01-25T00:58:34;2.20;67.20
4097;DHT22;2062;50.694;7.246;2023-01-25T01:01:02;2.10;67.30
4097;DHT22;2062;50.694;7.246;2023-01-25T01:03:29;2.10;67.30
4097;DHT22;2062;50.694;7.246;2023-01-25T01:06:00;2.10;67.30
4097;DHT22;2062;50.694;7.246;2023-01-25T01:08:27;2.10;67.20
4097;DHT22;2062;50.694;7.246;2023-01-25T01:10:58;2.10;67.10
4097;DHT22;2062;50.694;7.246;2023-01-25T01:13:25;2.10;67.10
4097;DHT22;2062;50.694;7.246;2023-01-25T01:15:53;2.10;67.20
4097;DHT22;2062;50.694;7.246;2023-01-25T01:18:20;2.10;67.20
4097;DHT22;2062;50.694;7.246;2023-01-25T01:20:49;2.10;67.20
4097;DHT22;2062;50.694;7.246;2023-01-25T01:23:16;2.10;67.30
4097;DHT22;2062;50.694;7.246;2023-01-25T01:25:43;2.10;67.40
4097;DHT22;2062;50.694;7.246;2023-01-25T01:28:11;2.10;68.20
4097;DHT22;2062;50.694;7.246;2023-01-25T01:30:38;2.10;67.40
4097;DHT22;2062;50.694;7.246;2023-01-25T01:33:06;2.00;67.30
4097;DHT22;2062;50.694;7.246;2023-01-25T01:35:33;2.10;67.50
4097;DHT22;2062;50.694;7.246;2023-01-25T01:37:59;2.00;67.30
4097;DHT22;2062;50.694;7.246;2023-01-25T01:40:26;2.00;67.50
4097;DHT22;2062;50.694;7.246;2023-01-25T01:42:58;2.00;67.50
4097;DHT22;2062;50.694;7.246;2023-01-25T01:45:48;2.00;67.50
4097;DHT22;2062;50.694;7.246;2023-01-25T01:48:20;2.00;67.50
4097;DHT22;2062;50.694;7.246;2023-01-25T01:50:52;2.00;67.60
4097;DHT22;2062;50.694;7.246;2023-01-25T01:53:22;2.00;67.70
4097;DHT22;2062;50.694;7.246;2023-01-25T01:55:51;2.00;67.50
4097;DHT22;2062;50.694;7.246;2023-01-25T01:58:18;2.00;67.60
4097;DHT22;2062;50.694;7.246;2023-01-25T02:00:45;2.00;67.60
4097;DHT22;2062;50.694;7.246;2023-01-25T02:03:12;2.00;67.60
4097;DHT22;2062;50.694;7.246;2023-01-25T02:05:46;2.00;67.60
4097;DHT22;2062;50.694;7.246;2023-01-25T02:08:17;2.00;67.70
4097;DHT22;2062;50.694;7.246;2023-01-25T02:10:44;2.00;67.60
4097;DHT22;2062;50.694;7.246;2023-01-25T02:13:11;2.10;67.70
4097;DHT22;2062;50.694;7.246;2023-01-25T02:15:40;2.00;67.50
4097;DHT22;2062;50.694;7.246;2023-01-25T02:18:10;2.00;67.50
4097;DHT22;2062;50.694;7.246;2023-01-25T02:20:38;2.00;67.60
4097;DHT22;2062;50.694;7.246;2023-01-25T02:23:11;2.00;67.70
4097;DHT22;2062;50.694;7.246;2023-01-25T02:25:42;2.00;67.70
4097;DHT22;2062;50.694;7.246;2023-01-25T02:28:11;2.00;67.70
4097;DHT22;2062;50.694;7.246;2023-01-25T02:30:41;2.00;67.70
4097;DHT22;2062;50.694;7.246;2023-01-25T02:33:09;2.00;67.60
4097;DHT22;2062;50.694;7.246;2023-01-25T02:35:40;2.00;67.80
4097;DHT22;2062;50.694;7.246;2023-01-25T02:38:08;2.00;67.80
4097;DHT22;2062;50.694;7.246;2023-01-25T02:40:43;2.00;67.60
4097;DHT22;2062;50.694;7.246;2023-01-25T02:43:10;2.00;67.50
4097;DHT22;2062;50.694;7.246;2023-01-25T02:45:37;2.00;67.50
4097;DHT22;2062;50.694;7.246;2023-01-25T02:48:05;2.00;67.50
4097;DHT22;2062;50.694;7.246;2023-01-25T02:50:31;2.00;67.60
4097;DHT22;2062;50.694;7.246;2023-01-25T02:52:58;2.00;67.60
4097;DHT22;2062;50.694;7.246;2023-01-25T02:55:25;2.00;67.70
4097;DHT22;2062;50.694;7.246;2023-01-25T02:57:53;2.00;67.80
4097;DHT22;2062;50.694;7.246;2023-01-25T03:00:20;1.90;68.10
4097;DHT22;2062;50.694;7.246;2023-01-25T03:02:47;1.90;67.90
4097;DHT22;2062;50.694;7.246;2023-01-25T03:05:14;1.90;67.80
4097;DHT22;2062;50.694;7.246;2023-01-25T03:07:40;1.90;67.90
4097;DHT22;2062;50.694;7.246;2023-01-25T03:10:08;1.90;67.90
4097;DHT22;2062;50.694;7.246;2023-01-25T03:12:36;1.90;67.90
4097;DHT22;2062;50.694;7.246;2023-01-25T03:15:06;1.90;68.00
4097;DHT22;2062;50.694;7.246;2023-01-25T03:17:33;1.90;68.00
4097;DHT22;2062;50.694;7.246;2023-01-25T03:20:00;1.90;68.00
4097;DHT22;2062;50.694;7.246;2023-01-25T03:22:27;1.90;68.00
4097;DHT22;2062;50.694;7.246;2023-01-25T03:24:53;1.90;68.10
4097;DHT22;2062;50.694;7.246;2023-01-25T03:27:21;1.90;68.10
4097;DHT22;2062;50.694;7.246;2023-01-25T03:29:48;1.90;68.20
4097;DHT22;2062;50.694;7.246;2023-01-25T03:32:16;1.90;68.10
4097;DHT22;2062;50.694;7.246;2023-01-25T03:34:43;1.90;68.20
4097;DHT22;2062;50.694;7.246;2023-01-25T03:37:10;1.90;68.10
4097;DHT22;2062;50.694;7.246;2023-01-25T03:39:36;1.90;68.10
4097;DHT22;2062;50.694;7.246;2023-01-25T03:42:03;1.90;68.00
4097;DHT22;2062;50.694;7.246;2023-01-25T03:44:30;1.90;68.00
4097;DHT22;2062;50.694;7.246;2023-01-25T03:46:57;1.90;68.10
4097;DHT22;2062;50.694;7.246;2023-01-25T03:49:25;1.90;68.00
4097;DHT22;2062;50.694;7.246;2023-01-25T03:51:53;1.90;68.10
4097;DHT22;2062;50.694;7.246;2023-01-25T03:54:20;1.90;68.10
4097;DHT22;2062;50.694;7.246;2023-01-25T03:56:46;1.90;68.00
4097;DHT22;2062;50.694;7.246;2023-01-25T03:59:13;1.90;68.00
4097;DHT22;2062;50.694;7.246;2023-01-25T04:01:40;1.90;68.20
4097;DHT22;2062;50.694;7.246;2023-01-25T04:04:07;1.90;68.20
4097;DHT22;2062;50.694;7.246;2023-01-25T04:06:35;1.90;68.10
4097;DHT22;2062;50.694;7.246;2023-01-25T04:09:02;1.90;68.20
4097;DHT22;2062;50.694;7.246;2023-01-25T04:11:29;1.90;68.30
4097;DHT22;2062;50.694;7.246;2023-01-25T04:13:55;1.90;68.30
4097;DHT22;2062;50.694;7.246;2023-01-25T04:16:22;1.90;68.20
4097;DHT22;2062;50.694;7.246;2023-01-25T04:18:49;1.90;68.30
4097;DHT22;2062;50.694;7.246;2023-01-25T04:21:16;1.90;68.20
4097;DHT22;2062;50.694;7.246;2023-01-25T04:23:44;1.90;68.20
4097;DHT22;2062;50.694;7.246;2023-01-25T04:26:11;1.90;68.30
4097;DHT22;2062;50.694;7.246;2023-01-25T04:28:39;1.90;68.30
4097;DHT22;2062;50.694;7.246;2023-01-25T04:31:06;1.90;68.30
4097;DHT22;2062;50.694;7.246;2023-01-25T04:33:33;1.90;68.20
4097;DHT22;2062;50.694;7.246;2023-01-25T04:36:00;1.90;68.30
4097;DHT22;2062;50.694;7.246;2023-01-25T04:38:27;1.90;68.30
4097;DHT22;2062;50.694;7.246;2023-01-25T04:40:56;1.90;68.30
4097;DHT22;2062;50.694;7.246;2023-01-25T04:43:22;1.90;68.30
4097;DHT22;2062;50.694;7.246;2023-01-25T04:45:51;1.90;68.30
4097;DHT22;2062;50.694;7.246;2023-01-25T04:48:17;1.90;68.30
4097;DHT22;2062;50.694;7.246;2023-01-25T04:50:44;1.90;68.30
4097;DHT22;2062;50.694;7.246;2023-01-25T04:53:12;1.90;68.40
4097;DHT22;2062;50.694;7.246;2023-01-25T04:55:39;1.90;68.30
4097;DHT22;2062;50.694;7.246;2023-01-25T04:58:07;1.90;68.30
4097;DHT22;2062;50.694;7.246;2023-01-25T05:00:34;1.90;68.30
4097;DHT22;2062;50.694;7.246;2023-01-25T05:03:02;1.90;68.60
4097;DHT22;2062;50.694;7.246;2023-01-25T05:05:28;1.90;68.60
4097;DHT22;2062;50.694;7.246;2023-01-25T05:07:55;1.90;68.60
4097;DHT22;2062;50.694;7.246;2023-01-25T05:10:22;1.90;68.50
4097;DHT22;2062;50.694;7.246;2023-01-25T05:12:49;1.90;68.40
4097;DHT22;2062;50.694;7.246;2023-01-25T05:15:17;1.80;68.30
4097;DHT22;2062;50.694;7.246;2023-01-25T05:17:44;1.80;68.30
4097;DHT22;2062;50.694;7.246;2023-01-25T05:20:11;1.80;68.40
4097;DHT22;2062;50.694;7.246;2023-01-25T05:22:38;1.80;68.50
4097;DHT22;2062;50.694;7.246;2023-01-25T05:25:05;1.80;68.50
4097;DHT22;2062;50.694;7.246;2023-01-25T05:27:52;1.80;68.50
4097;DHT22;2062;50.694;7.246;2023-01-25T05:30:19;1.80;68.60
4097;DHT22;2062;50.694;7.246;2023-01-25T05:32:47;1.80;68.60
4097;DHT22;2062;50.694;7.246;2023-01-25T05:35:15;1.80;68.60
4097;DHT22;2062;50.694;7.246;2023-01-25T05:37:41;1.80;68.60
4097;DHT22;2062;50.694;7.246;2023-01-25T05:40:09;1.80;68.60
4097;DHT22;2062;50.694;7.246;2023-01-25T05:42:36;1.80;68.60
4097;DHT22;2062;50.694;7.246;2023-01-25T05:45:04;1.80;68.60
4097;DHT22;2062;50.694;7.246;2023-01-25T05:47:32;1.80;68.60
4097;DHT22;2062;50.694;7.246;2023-01-25T05:49:58;1.80;68.60
4097;DHT22;2062;50.694;7.246;2023-01-25T05:52:25;1.80;68.60
4097;DHT22;2062;50.694;7.246;2023-01-25T05:54:52;1.80;68.60
4097;DHT22;2062;50.694;7.246;2023-01-25T05:57:19;1.80;68.50
4097;DHT22;2062;50.694;7.246;2023-01-25T05:59:45;1.80;68.50
4097;DHT22;2062;50.694;7.246;2023-01-25T06:02:12;1.80;68.50
4097;DHT22;2062;50.694;7.246;2023-01-25T06:04:40;1.80;68.50
4097;DHT22;2062;50.694;7.246;2023-01-25T06:07:07;1.90;68.70
4097;DHT22;2062;50.694;7.246;2023-01-25T06:09:34;1.80;68.60
4097;DHT22;2062;50.694;7.246;2023-01-25T06:12:00;1.80;68.60
4097;DHT22;2062;50.694;7.246;2023-01-25T06:14:28;1.80;68.60
4097;DHT22;2062;50.694;7.246;2023-01-25T06:16:54;1.80;68.50
4097;DHT22;2062;50.694;7.246;2023-01-25T06:19:21;1.80;68.60
4097;DHT22;2062;50.694;7.246;2023-01-25T06:21:50;1.80;68.60
4097;DHT22;2062;50.694;7.246;2023-01-25T06:24:17;1.80;68.60
4097;DHT22;2062;50.694;7.246;2023-01-25T06:26:43;1.80;68.60
4097;DHT22;2062;50.694;7.246;2023-01-25T06:29:11;1.80;68.60
4097;DHT22;2062;50.694;7.246;2023-01-25T06:31:38;1.80;68.60
4097;DHT22;2062;50.694;7.246;2023-01-25T06:34:05;1.80;68.60
4097;DHT22;2062;50.694;7.246;2023-01-25T06:36:33;1.80;68.60
4097;DHT22;2062;50.694;7.246;2023-01-25T06:39:01;1.80;68.60
4097;DHT22;2062;50.694;7.246;2023-01-25T06:41:28;1.80;68.60
4097;DHT22;2062;50.694;7.246;2023-01-25T06:43:55;1.80;68.60
4097;DHT22;2062;50.694;7.246;2023-01-25T06:46:21;1.80;68.60
4097;DHT22;2062;50.694;7.246;2023-01-25T06:48:48;1.80;68.70
4097;DHT22;2062;50.694;7.246;2023-01-25T06:51:15;1.90;68.70
4097;DHT22;2062;50.694;7.246;2023-01-25T06:53:45;1.90;68.80
4097;DHT22;2062;50.694;7.246;2023-01-25T06:56:15;1.90;68.70
4097;DHT22;2062;50.694;7.246;2023-01-25T06:58:43;1.90;68.80
4097;DHT22;2062;50.694;7.246;2023-01-25T07:01:13;1.90;68.80
4097;DHT22;2062;50.694;7.246;2023-01-25T07:03:40;1.80;68.60
4097;DHT22;2062;50.694;7.246;2023-01-25T07:06:09;1.90;68.80
4097;DHT22;2062;50.694;7.246;2023-01-25T07:08:36;1.80;68.40
4097;DHT22;2062;50.694;7.246;2023-01-25T07:11:05;1.80;68.50
4097;DHT22;2062;50.694;7.246;2023-01-25T07:13:35;1.80;68.30
4097;DHT22;2062;50.694;7.246;2023-01-25T07:16:04;1.80;68.60
4097;DHT22;2062;50.694;7.246;2023-01-25T07:18:33;1.80;68.60
4097;DHT22;2062;50.694;7.246;2023-01-25T07:21:02;1.80;68.60
4097;DHT22;2062;50.694;7.246;2023-01-25T07:23:30;1.80;68.60
4097;DHT22;2062;50.694;7.246;2023-01-25T07:25:58;1.80;68.40
4097;DHT22;2062;50.694;7.246;2023-01-25T07:28:26;1.80;68.60
4097;DHT22;2062;50.694;7.246;2023-01-25T07:30:54;1.80;68.60
4097;DHT22;2062;50.694;7.246;2023-01-25T07:33:21;1.80;68.60
4097;DHT22;2062;50.694;7.246;2023-01-25T07:35:48;1.80;68.60
4097;DHT22;2062;50.694;7.246;2023-01-25T07:38:15;1.80;68.60
4097;DHT22;2062;50.694;7.246;2023-01-25T07:40:42;1.80;68.60
4097;DHT22;2062;50.694;7.246;2023-01-25T07:43:09;1.80;68.70
4097;DHT22;2062;50.694;7.246;2023-01-25T07:45:36;1.80;68.60
4097;DHT22;2062;50.694;7.246;2023-01-25T07:48:07;1.80;68.50
4097;DHT22;2062;50.694;7.246;2023-01-25T07:50:35;1.80;68.50
4097;DHT22;2062;50.694;7.246;2023-01-25T07:53:02;1.80;68.40
4097;DHT22;2062;50.694;7.246;2023-01-25T07:55:28;1.80;68.40
4097;DHT22;2062;50.694;7.246;2023-01-25T07:57:56;1.80;68.60
4097;DHT22;2062;50.694;7.246;2023-01-25T08:00:22;1.70;68.60
4097;DHT22;2062;50.694;7.246;2023-01-25T08:02:50;1.70;68.70
4097;DHT22;2062;50.694;7.246;2023-01-25T08:05:19;1.80;68.90
4097;DHT22;2062;50.694;7.246;2023-01-25T08:07:47;1.70;68.90
4097;DHT22;2062;50.694;7.246;2023-01-25T08:10:14;1.70;68.90
4097;DHT22;2062;50.694;7.246;2023-01-25T08:12:44;1.70;68.90
4097;DHT22;2062;50.694;7.246;2023-01-25T08:15:11;1.70;68.90
4097;DHT22;2062;50.694;7.246;2023-01-25T08:17:38;1.70;69.00
4097;DHT22;2062;50.694;7.246;2023-01-25T08:20:06;1.70;69.00
4097;DHT22;2062;50.694;7.246;2023-01-25T08:22:34;1.70;68.80
4097;DHT22;2062;50.694;7.246;2023-01-25T08:25:02;1.70;68.80
4097;DHT22;2062;50.694;7.246;2023-01-25T08:27:28;1.70;68.80
4097;DHT22;2062;50.694;7.246;2023-01-25T08:29:55;1.70;68.90
4097;DHT22;2062;50.694;7.246;2023-01-25T08:32:22;1.70;69.00
4097;DHT22;2062;50.694;7.246;2023-01-25T08:34:49;1.70;69.00
4097;DHT22;2062;50.694;7.246;2023-01-25T08:37:15;1.70;69.00
4097;DHT22;2062;50.694;7.246;2023-01-25T08:39:44;1.70;69.00
4097;DHT22;2062;50.694;7.246;2023-01-25T08:42:10;1.70;69.00
4097;DHT22;2062;50.694;7.246;2023-01-25T08:44:37;1.70;69.00
4097;DHT22;2062;50.694;7.246;2023-01-25T08:47:04;1.70;69.10
4097;DHT22;2062;50.694;7.246;2023-01-25T08:49:31;1.70;69.00
4097;DHT22;2062;50.694;7.246;2023-01-25T08:51:59;1.70;69.10
4097;DHT22;2062;50.694;7.246;2023-01-25T08:54:25;1.70;69.00
4097;DHT22;2062;50.694;7.246;2023-01-25T08:56:53;1.70;69.00
4097;DHT22;2062;50.694;7.246;2023-01-25T08:59:20;1.80;69.00
4097;DHT22;2062;50.694;7.246;2023-01-25T09:01:47;1.80;69.10
4097;DHT22;2062;50.694;7.246;2023-01-25T09:04:14;1.80;69.00
4097;DHT22;2062;50.694;7.246;2023-01-25T09:06:41;1.80;69.00
4097;DHT22;2062;50.694;7.246;2023-01-25T09:09:08;1.80;69.00
4097;DHT22;2062;50.694;7.246;2023-01-25T09:11:35;1.80;69.00
4097;DHT22;2062;50.694;7.246;2023-01-25T09:14:04;1.80;69.10
4097;DHT22;2062;50.694;7.246;2023-01-25T09:16:30;1.80;69.10
4097;DHT22;2062;50.694;7.246;2023-01-25T09:19:00;1.80;69.10
4097;DHT22;2062;50.694;7.246;2023-01-25T09:21:27;1.80;69.20
4097;DHT22;2062;50.694;7.246;2023-01-25T09:23:55;1.90;69.20
4097;DHT22;2062;50.694;7.246;2023-01-25T09:26:22;1.90;69.40
4097;DHT22;2062;50.694;7.246;2023-01-25T09:28:50;1.90;69.40
4097;DHT22;2062;50.694;7.246;2023-01-25T09:31:19;1.90;69.40
4097;DHT22;2062;50.694;7.246;2023-01-25T09:33:47;1.80;69.40
4097;DHT22;2062;50.694;7.246;2023-01-25T09:36:13;1.90;69.50
4097;DHT22;2062;50.694;7.246;2023-01-25T09:38:40;1.90;69.40
4097;DHT22;2062;50.694;7.246;2023-01-25T09:41:17;1.90;69.40
4097;DHT22;2062;50.694;7.246;2023-01-25T09:44:03;1.90;69.50
4097;DHT22;2062;50.694;7.246;2023-01-25T09:46:40;1.90;69.50
4097;DHT22;2062;50.694;7.246;2023-01-25T09:49:26;2.00;69.50
4097;DHT22;2062;50.694;7.246;2023-01-25T09:52:11;2.00;69.60
4097;DHT22;2062;50.694;7.246;2023-01-25T09:54:43;2.00;69.70
4097;DHT22;2062;50.694;7.246;2023-01-25T09:57:14;2.00;69.60
4097;DHT22;2062;50.694;7.246;2023-01-25T09:59:43;2.00;69.60
4097;DHT22;2062;50.694;7.246;2023-01-25T10:02:23;2.00;69.60
4097;DHT22;2062;50.694;7.246;2023-01-25T10:04:53;2.00;69.70
4097;DHT22;2062;50.694;7.246;2023-01-25T10:07:26;2.00;69.70
4097;DHT22;2062;50.694;7.246;2023-01-25T10:09:59;2.10;69.80
4097;DHT22;2062;50.694;7.246;2023-01-25T10:12:32;2.10;69.90
4097;DHT22;2062;50.694;7.246;2023-01-25T10:15:00;2.00;69.70
4097;DHT22;2062;50.694;7.246;2023-01-25T10:17:33;2.10;69.90
4097;DHT22;2062;50.694;7.246;2023-01-25T10:20:13;2.10;69.90
4097;DHT22;2062;50.694;7.246;2023-01-25T10:22:45;2.10;69.90
4097;DHT22;2062;50.694;7.246;2023-01-25T10:25:27;2.10;69.90
4097;DHT22;2062;50.694;7.246;2023-01-25T10:28:14;2.10;69.90
4097;DHT22;2062;50.694;7.246;2023-01-25T10:30:48;2.10;69.80
4097;DHT22;2062;50.694;7.246;2023-01-25T10:33:19;2.10;69.80
4097;DHT22;2062;50.694;7.246;2023-01-25T10:35:48;2.10;70.00
4097;DHT22;2062;50.694;7.246;2023-01-25T10:38:19;2.10;69.80
4097;DHT22;2062;50.694;7.246;2023-01-25T10:40:52;2.10;69.80
4097;DHT22;2062;50.694;7.246;2023-01-25T10:43:21;2.20;69.80
4097;DHT22;2062;50.694;7.246;2023-01-25T10:45:49;2.20;69.90
4097;DHT22;2062;50.694;7.246;2023-01-25T10:48:20;2.20;69.90
4097;DHT22;2062;50.694;7.246;2023-01-25T10:50:51;2.20;70.00
4097;DHT22;2062;50.694;7.246;2023-01-25T10:53:27;2.20;70.00
4097;DHT22;2062;50.694;7.246;2023-01-25T10:55:57;2.20;70.00
4097;DHT22;2062;50.694;7.246;2023-01-25T10:58:34;2.20;69.80
4097;DHT22;2062;50.694;7.246;2023-01-25T11:01:02;2.20;69.90
4097;DHT22;2062;50.694;7.246;2023-01-25T11:03:37;2.20;69.80
4097;DHT22;2062;50.694;7.246;2023-01-25T11:06:05;2.20;69.90
4097;DHT22;2062;50.694;7.246;2023-01-25T11:08:34;2.20;70.70
4097;DHT22;2062;50.694;7.246;2023-01-25T11:11:23;2.20;69.90
4097;DHT22;2062;50.694;7.246;2023-01-25T11:13:52;2.30;70.00
4097;DHT22;2062;50.694;7.246;2023-01-25T11:16:34;2.20;70.00
4097;DHT22;2062;50.694;7.246;2023-01-25T11:19:24;2.30;70.10
4097;DHT22;2062;50.694;7.246;2023-01-25T11:21:52;2.20;70.00
4097;DHT22;2062;50.694;7.246;2023-01-25T11:24:19;2.30;70.00
4097;DHT22;2062;50.694;7.246;2023-01-25T11:26:46;2.30;69.90
4097;DHT22;2062;50.694;7.246;2023-01-25T11:29:15;2.30;69.80
4097;DHT22;2062;50.694;7.246;2023-01-25T11:31:43;2.30;69.80
4097;DHT22;2062;50.694;7.246;2023-01-25T11:34:14;2.20;69.60
4097;DHT22;2062;50.694;7.246;2023-01-25T11:36:48;2.30;69.80
4097;DHT22;2062;50.694;7.246;2023-01-25T11:39:25;2.30;69.80
4097;DHT22;2062;50.694;7.246;2023-01-25T11:42:02;2.30;69.80
4097;DHT22;2062;50.694;7.246;2023-01-25T11:44:57;2.30;69.80
4097;DHT22;2062;50.694;7.246;2023-01-25T11:47:43;2.30;69.90
4097;DHT22;2062;50.694;7.246;2023-01-25T11:50:18;2.30;69.80
4097;DHT22;2062;50.694;7.246;2023-01-25T11:53:01;2.30;69.80
4097;DHT22;2062;50.694;7.246;2023-01-25T11:55:31;2.30;69.80
4097;DHT22;2062;50.694;7.246;2023-01-25T11:58:19;2.30;69.90
4097;DHT22;2062;50.694;7.246;2023-01-25T12:00:58;2.30;70.00
4097;DHT22;2062;50.694;7.246;2023-01-25T12:04:00;2.30;69.90
4097;DHT22;2062;50.694;7.246;2023-01-25T12:06:41;2.30;70.00
4097;DHT22;2062;50.694;7.246;2023-01-25T12:09:24;2.30;69.90
4097;DHT22;2062;50.694;7.246;2023-01-25T12:12:04;2.30;70.00
4097;DHT22;2062;50.694;7.246;2023-01-25T12:14:42;2.30;69.90
4097;DHT22;2062;50.694;7.246;2023-01-25T12:17:26;2.30;69.90
4097;DHT22;2062;50.694;7.246;2023-01-25T12:20:21;2.30;69.90
4097;DHT22;2062;50.694;7.246;2023-01-25T12:23:15;2.30;69.90
4097;DHT22;2062;50.694;7.246;2023-01-25T12:25:53;2.30;69.90
4097;DHT22;2062;50.694;7.246;2023-01-25T12:28:25;2.30;70.10
4097;DHT22;2062;50.694;7.246;2023-01-25T12:30:57;2.30;70.10
4097;DHT22;2062;50.694;7.246;2023-01-25T12:33:30;2.30;70.10
4097;DHT22;2062;50.694;7.246;2023-01-25T12:36:02;2.40;70.10
4097;DHT22;2062;50.694;7.246;2023-01-25T12:38:36;2.40;70.10
4097;DHT22;2062;50.694;7.246;2023-01-25T12:41:21;2.30;70.10
4097;DHT22;2062;50.694;7.246;2023-01-25T12:43:51;2.40;70.20
4097;DHT22;2062;50.694;7.246;2023-01-25T12:46:25;2.40;70.10
4097;DHT22;2062;50.694;7.246;2023-01-25T12:48:54;2.40;70.10
4097;DHT22;2062;50.694;7.246;2023-01-25T12:51:35;2.40;70.10
4097;DHT22;2062;50.694;7.246;2023-01-25T12:54:12;2.40;70.20
4097;DHT22;2062;50.694;7.246;2023-01-25T12:56:47;2.40;70.00
4097;DHT22;2062;50.694;7.246;2023-01-25T12:59:22;2.40;70.00
4097;DHT22;2062;50.694;7.246;2023-01-25T13:01:55;2.40;69.90
4097;DHT22;2062;50.694;7.246;2023-01-25T13:04:38;2.40;70.10
4097;DHT22;2062;50.694;7.246;2023-01-25T13:07:12;2.40;70.10
4097;DHT22;2062;50.694;7.246;2023-01-25T13:09:50;2.50;70.10
4097;DHT22;2062;50.694;7.246;2023-01-25T13:12:18;2.40;70.10
4097;DHT22;2062;50.694;7.246;2023-01-25T13:14:45;2.40;70.00
4097;DHT22;2062;50.694;7.246;2023-01-25T13:17:20;2.40;69.80
4097;DHT22;2062;50.694;7.246;2023-01-25T13:19:48;2.40;69.80
4097;DHT22;2062;50.694;7.246;2023-01-25T13:22:54;2.40;69.80
4097;DHT22;2062;50.694;7.246;2023-01-25T13:25:24;2.40;69.90
4097;DHT22;2062;50.694;7.246;2023-01-25T13:27:52;2.40;69.80
4097;DHT22;2062;50.694;7.246;2023-01-25T13:30:50;2.40;69.80
4097;DHT22;2062;50.694;7.246;2023-01-25T13:33:31;2.40;69.90
4097;DHT22;2062;50.694;7.246;2023-01-25T13:36:41;2.40;69.90
4097;DHT22;2062;50.694;7.246;2023-01-25T13:39:41;2.40;69.90
4097;DHT22;2062;50.694;7.246;2023-01-25T13:42:23;2.40;69.90
4097;DHT22;2062;50.694;7.246;2023-01-25T13:44:53;2.40;69.90
4097;DHT22;2062;50.694;7.246;2023-01-25T13:47:22;2.40;69.90
4097;DHT22;2062;50.694;7.246;2023-01-25T13:49:53;2.40;70.00
4097;DHT22;2062;50.694;7.246;2023-01-25T13:52:23;2.40;70.00
4097;DHT22;2062;50.694;7.246;2023-01-25T13:54:53;2.40;70.00
4097;DHT22;2062;50.694;7.246;2023-01-25T13:57:23;2.30;69.90
4097;DHT22;2062;50.694;7.246;2023-01-25T13:59:58;2.40;69.90
4097;DHT22;2062;50.694;7.246;2023-01-25T14:02:26;2.30;70.10
4097;DHT22;2062;50.694;7.246;2023-01-25T14:04:53;2.40;70.10
4097;DHT22;2062;50.694;7.246;2023-01-25T14:07:29;2.30;70.10
4097;DHT22;2062;50.694;7.246;2023-01-25T14:10:00;2.30;70.00
4097;DHT22;2062;50.694;7.246;2023-01-25T14:12:35;2.30;70.10
4097;DHT22;2062;50.694;7.246;2023-01-25T14:15:21;2.30;70.10
4097;DHT22;2062;50.694;7.246;2023-01-25T14:18:10;2.30;70.00
4097;DHT22;2062;50.694;7.246;2023-01-25T14:20:37;2.30;70.10
4097;DHT22;2062;50.694;7.246;2023-01-25T14:23:04;2.30;70.10
4097;DHT22;2062;50.694;7.246;2023-01-25T14:25:32;2.30;70.10
4097;DHT22;2062;50.694;7.246;2023-01-25T14:28:01;2.30;70.20
4097;DHT22;2062;50.694;7.246;2023-01-25T14:30:30;2.30;70.30
4097;DHT22;2062;50.694;7.246;2023-01-25T14:32:59;2.30;70.30
4097;DHT22;2062;50.694;7.246;2023-01-25T14:35:32;2.30;70.30
4097;DHT22;2062;50.694;7.246;2023-01-25T14:38:00;2.30;70.20
4097;DHT22;2062;50.694;7.246;2023-01-25T14:40:28;2.30;70.20
4097;DHT22;2062;50.694;7.246;2023-01-25T14:42:55;2.30;70.20
4097;DHT22;2062;50.694;7.246;2023-01-25T14:45:24;2.30;70.10
4097;DHT22;2062;50.694;7.246;2023-01-25T14:47:52;2.30;70.10
4097;DHT22;2062;50.694;7.246;2023-01-25T14:50:30;2.30;70.10
4097;DHT22;2062;50.694;7.246;2023-01-25T14:52:57;2.30;70.10
4097;DHT22;2062;50.694;7.246;2023-01-25T14:55:25;2.30;70.00
4097;DHT22;2062;50.694;7.246;2023-01-25T14:57:52;2.30;70.10
4097;DHT22;2062;50.694;7.246;2023-01-25T15:00:26;2.30;70.10
4097;DHT22;2062;50.694;7.246;2023-01-25T15:02:57;2.30;70.00
4097;DHT22;2062;50.694;7.246;2023-01-25T15:05:26;2.30;70.00
4097;DHT22;2062;50.694;7.246;2023-01-25T15:07:54;2.30;70.10
4097;DHT22;2062;50.694;7.246;2023-01-25T15:10:22;2.30;70.10
4097;DHT22;2062;50.694;7.246;2023-01-25T15:13:00;2.30;70.20
4097;DHT22;2062;50.694;7.246;2023-01-25T15:15:30;2.30;70.10
4097;DHT22;2062;50.694;7.246;2023-01-25T15:17:57;2.30;70.20
4097;DHT22;2062;50.694;7.246;2023-01-25T15:20:29;2.20;70.00
4097;DHT22;2062;50.694;7.246;2023-01-25T15:22:59;2.30;70.10
4097;DHT22;2062;50.694;7.246;2023-01-25T15:25:26;2.20;70.00
4097;DHT22;2062;50.694;7.246;2023-01-25T15:27:53;2.30;70.00
4097;DHT22;2062;50.694;7.246;2023-01-25T15:30:20;2.20;70.00
4097;DHT22;2062;50.694;7.246;2023-01-25T15:32:48;2.20;70.00
4097;DHT22;2062;50.694;7.246;2023-01-25T15:35:16;2.20;70.00
4097;DHT22;2062;50.694;7.246;2023-01-25T15:37:45;2.20;70.00
4097;DHT22;2062;50.694;7.246;2023-01-25T15:40:12;2.20;70.10
4097;DHT22;2062;50.694;7.246;2023-01-25T15:42:39;2.20;70.00
4097;DHT22;2062;50.694;7.246;2023-01-25T15:45:08;2.20;70.00
4097;DHT22;2062;50.694;7.246;2023-01-25T15:47:36;2.20;70.00
4097;DHT22;2062;50.694;7.246;2023-01-25T15:50:08;2.20;70.10
4097;DHT22;2062;50.694;7.246;2023-01-25T15:52:38;2.20;70.00
4097;DHT22;2062;50.694;7.246;2023-01-25T15:55:05;2.20;70.10
4097;DHT22;2062;50.694;7.246;2023-01-25T15:57:33;2.20;70.10
4097;DHT22;2062;50.694;7.246;2023-01-25T16:00:02;2.20;70.10
4097;DHT22;2062;50.694;7.246;2023-01-25T16:02:30;2.20;70.10
4097;DHT22;2062;50.694;7.246;2023-01-25T16:04:56;2.20;70.10
4097;DHT22;2062;50.694;7.246;2023-01-25T16:07:28;2.20;70.10
4097;DHT22;2062;50.694;7.246;2023-01-25T16:09:55;2.20;70.00
4097;DHT22;2062;50.694;7.246;2023-01-25T16:12:22;2.20;70.10
4097;DHT22;2062;50.694;7.246;2023-01-25T16:14:49;2.20;70.10
4097;DHT22;2062;50.694;7.246;2023-01-25T16:17:18;2.20;70.10
4097;DHT22;2062;50.694;7.246;2023-01-25T16:19:45;2.10;70.10
4097;DHT22;2062;50.694;7.246;2023-01-25T16:22:13;2.10;70.10
4097;DHT22;2062;50.694;7.246;2023-01-25T16:24:42;2.10;70.10
4097;DHT22;2062;50.694;7.246;2023-01-25T16:27:15;2.10;70.00
4097;DHT22;2062;50.694;7.246;2023-01-25T16:29:45;2.10;70.00
4097;DHT22;2062;50.694;7.246;2023-01-25T16:32:11;2.10;70.10
4097;DHT22;2062;50.694;7.246;2023-01-25T16:34:38;2.10;70.10
4097;DHT22;2062;50.694;7.246;2023-01-25T16:37:05;2.10;70.10
4097;DHT22;2062;50.694;7.246;2023-01-25T16:39:32;2.10;70.10